sensor_id;sensor_type;location;lat;lon;timestamp;P1;durP1;ratioP1;P2;durP2;ratioP2
64619;SDS011;51029;51.058;13.826;2022-08-01T00:00:33;5.93;;;3.30;;
64619;SDS011;51029;51.058;13.826;2022-08-01T00:02:59;4.57;;;3.23;;
64619;SDS011;51029;51.058;13.826;2022-08-01T00:05:25;4.83;;;3.63;;
64619;SDS011;51029;51.058;13.826;2022-08-01T00:07:51;6.43;;;3.27;;
64619;SDS011;51029;51.058;13.826;2022-08-01T00:10:17;4.33;;;3.20;;
64619;SDS011;51029;51.058;13.826;2022-08-01T00:12:44;3.67;;;3.30;;
64619;SDS011;51029;51.058;13.826;2022-08-01T00:15:11;3.67;;;3.20;;
64619;SDS011;51029;51.058;13.826;2022-08-01T00:17:37;4.73;;;3.70;;
64619;SDS011;51029;51.058;13.826;2022-08-01T00:20:04;3.53;;;3.23;;
64619;SDS011;51029;51.058;13.826;2022-08-01T00:22:31;3.90;;;2.90;;
64619;SDS011;51029;51.058;13.826;2022-08-01T00:24:57;3.20;;;2.90;;
64619;SDS011;51029;51.058;13.826;2022-08-01T00:27:23;3.53;;;3.10;;
64619;SDS011;51029;51.058;13.826;2022-08-01T00:29:49;5.23;;;3.30;;
64619;SDS011;51029;51.058;13.826;2022-08-01T00:32:15;4.67;;;3.30;;
64619;SDS011;51029;51.058;13.826;2022-08-01T00:34:41;3.20;;;2.90;;
64619;SDS011;51029;51.058;13.826;2022-08-01T00:37:07;3.70;;;3.40;;
64619;SDS011;51029;51.058;13.826;2022-08-01T00:39:33;4.87;;;3.40;;
64619;SDS011;51029;51.058;13.826;2022-08-01T00:41:59;4.03;;;3.20;;
64619;SDS011;51029;51.058;13.826;2022-08-01T00:44:26;4.77;;;3.10;;
64619;SDS011;51029;51.058;13.826;2022-08-01T00:46:52;4.40;;;2.97;;
64619;SDS011;51029;51.058;13.826;2022-08-01T00:49:17;4.77;;;3.00;;
64619;SDS011;51029;51.058;13.826;2022-08-01T00:51:43;4.43;;;3.40;;
64619;SDS011;51029;51.058;13.826;2022-08-01T00:54:09;3.53;;;3.23;;
64619;SDS011;51029;51.058;13.826;2022-08-01T00:56:35;3.60;;;3.10;;
64619;SDS011;51029;51.058;13.826;2022-08-01T00:59:01;3.57;;;3.23;;
64619;SDS011;51029;51.058;13.826;2022-08-01T01:01:28;3.83;;;3.40;;
64619;SDS011;51029;51.058;13.826;2022-08-01T01:03:54;4.30;;;3.40;;
64619;SDS011;51029;51.058;13.826;2022-08-01T01:08:54;3.63;;;3.30;;
64619;SDS011;51029;51.058;13.826;2022-08-01T01:11:29;3.70;;;3.43;;
64619;SDS011;51029;51.058;13.826;2022-08-01T01:14:00;3.83;;;3.20;;
64619;SDS011;51029;51.058;13.826;2022-08-01T01:16:27;4.73;;;3.50;;
64619;SDS011;51029;51.058;13.826;2022-08-01T01:18:55;3.80;;;3.43;;
64619;SDS011;51029;51.058;13.826;2022-08-01T01:26:36;4.93;;;3.60;;
64619;SDS011;51029;51.058;13.826;2022-08-01T01:29:11;3.73;;;3.40;;
64619;SDS011;51029;51.058;13.826;2022-08-01T01:34:12;3.63;;;3.33;;
64619;SDS011;51029;51.058;13.826;2022-08-01T01:36:39;3.73;;;3.27;;
64619;SDS011;51029;51.058;13.826;2022-08-01T01:39:05;3.77;;;3.33;;
64619;SDS011;51029;51.058;13.826;2022-08-01T01:41:32;3.67;;;3.10;;
64619;SDS011;51029;51.058;13.826;2022-08-01T01:43:58;5.90;;;3.80;;
64619;SDS011;51029;51.058;13.826;2022-08-01T01:46:26;3.87;;;3.47;;
64619;SDS011;51029;51.058;13.826;2022-08-01T01:48:53;5.47;;;3.83;;
64619;SDS011;51029;51.058;13.826;2022-08-01T01:51:22;4.30;;;3.00;;
64619;SDS011;51029;51.058;13.826;2022-08-01T01:53:48;4.47;;;3.30;;
64619;SDS011;51029;51.058;13.826;2022-08-01T01:56:15;3.93;;;3.40;;
64619;SDS011;51029;51.058;13.826;2022-08-01T01:58:41;4.03;;;3.63;;
64619;SDS011;51029;51.058;13.826;2022-08-01T02:01:08;5.50;;;3.40;;
64619;SDS011;51029;51.058;13.826;2022-08-01T02:03:36;3.67;;;3.30;;
64619;SDS011;51029;51.058;13.826;2022-08-01T02:06:03;3.63;;;3.30;;
64619;SDS011;51029;51.058;13.826;2022-08-01T02:08:29;6.17;;;3.80;;
64619;SDS011;51029;51.058;13.826;2022-08-01T02:10:56;3.77;;;3.43;;
64619;SDS011;51029;51.058;13.826;2022-08-01T02:13:42;3.77;;;2.87;;
64619;SDS011;51029;51.058;13.826;2022-08-01T02:16:08;5.37;;;3.40;;
64619;SDS011;51029;51.058;13.826;2022-08-01T02:18:38;3.33;;;3.10;;
64619;SDS011;51029;51.058;13.826;2022-08-01T02:21:05;3.60;;;3.30;;
64619;SDS011;51029;51.058;13.826;2022-08-01T02:23:32;3.80;;;3.40;;
64619;SDS011;51029;51.058;13.826;2022-08-01T02:26:00;3.60;;;3.30;;
64619;SDS011;51029;51.058;13.826;2022-08-01T02:28:35;3.30;;;3.00;;
64619;SDS011;51029;51.058;13.826;2022-08-01T02:31:02;4.93;;;3.10;;
64619;SDS011;51029;51.058;13.826;2022-08-01T02:33:34;3.30;;;3.00;;
64619;SDS011;51029;51.058;13.826;2022-08-01T02:36:02;3.13;;;2.93;;
64619;SDS011;51029;51.058;13.826;2022-08-01T02:38:29;5.30;;;3.20;;
64619;SDS011;51029;51.058;13.826;2022-08-01T02:40:57;4.10;;;3.40;;
64619;SDS011;51029;51.058;13.826;2022-08-01T02:43:24;3.87;;;3.50;;
64619;SDS011;51029;51.058;13.826;2022-08-01T02:45:53;4.07;;;3.40;;
64619;SDS011;51029;51.058;13.826;2022-08-01T02:48:20;4.27;;;3.43;;
64619;SDS011;51029;51.058;13.826;2022-08-01T02:50:47;5.10;;;3.17;;
64619;SDS011;51029;51.058;13.826;2022-08-01T02:53:14;3.80;;;3.50;;
64619;SDS011;51029;51.058;13.826;2022-08-01T02:55:42;5.87;;;3.20;;
64619;SDS011;51029;51.058;13.826;2022-08-01T02:58:09;4.23;;;3.40;;
64619;SDS011;51029;51.058;13.826;2022-08-01T03:00:37;5.23;;;3.40;;
64619;SDS011;51029;51.058;13.826;2022-08-01T03:03:05;6.13;;;3.10;;
64619;SDS011;51029;51.058;13.826;2022-08-01T03:05:32;3.77;;;3.37;;
64619;SDS011;51029;51.058;13.826;2022-08-01T03:07:58;6.27;;;3.37;;
64619;SDS011;51029;51.058;13.826;2022-08-01T03:10:25;4.13;;;3.27;;
64619;SDS011;51029;51.058;13.826;2022-08-01T03:12:52;3.77;;;3.43;;
64619;SDS011;51029;51.058;13.826;2022-08-01T03:15:19;4.70;;;3.37;;
64619;SDS011;51029;51.058;13.826;2022-08-01T03:17:47;5.37;;;3.47;;
64619;SDS011;51029;51.058;13.826;2022-08-01T03:20:14;4.27;;;3.60;;
64619;SDS011;51029;51.058;13.826;2022-08-01T03:22:40;3.90;;;3.40;;
64619;SDS011;51029;51.058;13.826;2022-08-01T03:25:08;3.97;;;3.57;;
64619;SDS011;51029;51.058;13.826;2022-08-01T03:27:34;3.70;;;3.37;;
64619;SDS011;51029;51.058;13.826;2022-08-01T03:30:02;3.63;;;3.27;;
64619;SDS011;51029;51.058;13.826;2022-08-01T03:32:29;3.93;;;3.53;;
64619;SDS011;51029;51.058;13.826;2022-08-01T03:34:55;5.60;;;3.60;;
64619;SDS011;51029;51.058;13.826;2022-08-01T03:37:26;5.03;;;3.40;;
64619;SDS011;51029;51.058;13.826;2022-08-01T03:40:03;5.30;;;3.57;;
64619;SDS011;51029;51.058;13.826;2022-08-01T03:42:52;4.90;;;3.53;;
64619;SDS011;51029;51.058;13.826;2022-08-01T03:45:21;4.53;;;3.70;;
64619;SDS011;51029;51.058;13.826;2022-08-01T03:47:48;4.43;;;3.50;;
64619;SDS011;51029;51.058;13.826;2022-08-01T03:50:14;5.97;;;3.50;;
64619;SDS011;51029;51.058;13.826;2022-08-01T03:52:43;5.93;;;3.30;;
64619;SDS011;51029;51.058;13.826;2022-08-01T03:55:10;4.93;;;3.53;;
64619;SDS011;51029;51.058;13.826;2022-08-01T03:57:37;4.77;;;3.60;;
64619;SDS011;51029;51.058;13.826;2022-08-01T04:00:04;4.33;;;3.60;;
64619;SDS011;51029;51.058;13.826;2022-08-01T04:02:34;6.77;;;3.60;;
64619;SDS011;51029;51.058;13.826;2022-08-01T04:05:00;3.77;;;3.30;;
64619;SDS011;51029;51.058;13.826;2022-08-01T04:07:27;4.37;;;3.53;;
64619;SDS011;51029;51.058;13.826;2022-08-01T04:09:54;6.80;;;3.80;;
64619;SDS011;51029;51.058;13.826;2022-08-01T04:12:20;3.73;;;3.30;;
64619;SDS011;51029;51.058;13.826;2022-08-01T04:14:46;5.90;;;3.47;;
64619;SDS011;51029;51.058;13.826;2022-08-01T04:17:12;22.60;;;18.63;;
64619;SDS011;51029;51.058;13.826;2022-08-01T04:19:38;30.27;;;25.57;;
64619;SDS011;51029;51.058;13.826;2022-08-01T04:22:04;12.70;;;11.40;;
64619;SDS011;51029;51.058;13.826;2022-08-01T04:24:31;16.53;;;13.27;;
64619;SDS011;51029;51.058;13.826;2022-08-01T04:26:58;14.83;;;11.90;;
64619;SDS011;51029;51.058;13.826;2022-08-01T04:29:25;11.43;;;8.77;;
64619;SDS011;51029;51.058;13.826;2022-08-01T04:31:53;18.17;;;10.43;;
64619;SDS011;51029;51.058;13.826;2022-08-01T04:34:20;16.67;;;9.03;;
64619;SDS011;51029;51.058;13.826;2022-08-01T04:36:47;13.63;;;7.33;;
64619;SDS011;51029;51.058;13.826;2022-08-01T04:39:14;9.30;;;6.00;;
64619;SDS011;51029;51.058;13.826;2022-08-01T04:41:41;18.27;;;10.47;;
64619;SDS011;51029;51.058;13.826;2022-08-01T04:44:07;11.37;;;6.20;;
64619;SDS011;51029;51.058;13.826;2022-08-01T04:46:33;4.47;;;3.90;;
64619;SDS011;51029;51.058;13.826;2022-08-01T04:49:01;6.60;;;4.40;;
64619;SDS011;51029;51.058;13.826;2022-08-01T04:51:27;7.63;;;4.20;;
64619;SDS011;51029;51.058;13.826;2022-08-01T04:53:53;6.80;;;4.03;;
64619;SDS011;51029;51.058;13.826;2022-08-01T04:56:19;4.07;;;3.57;;
64619;SDS011;51029;51.058;13.826;2022-08-01T04:58:46;4.10;;;3.57;;
64619;SDS011;51029;51.058;13.826;2022-08-01T05:01:12;6.53;;;4.00;;
64619;SDS011;51029;51.058;13.826;2022-08-01T05:03:38;3.73;;;3.43;;
64619;SDS011;51029;51.058;13.826;2022-08-01T05:06:04;5.53;;;3.73;;
64619;SDS011;51029;51.058;13.826;2022-08-01T05:08:30;4.60;;;3.60;;
64619;SDS011;51029;51.058;13.826;2022-08-01T05:10:56;4.03;;;3.63;;
64619;SDS011;51029;51.058;13.826;2022-08-01T05:13:22;4.43;;;3.57;;
64619;SDS011;51029;51.058;13.826;2022-08-01T05:15:48;3.97;;;3.50;;
64619;SDS011;51029;51.058;13.826;2022-08-01T05:18:14;4.40;;;3.30;;
64619;SDS011;51029;51.058;13.826;2022-08-01T05:20:41;6.10;;;3.87;;
64619;SDS011;51029;51.058;13.826;2022-08-01T05:23:07;4.97;;;3.63;;
64619;SDS011;51029;51.058;13.826;2022-08-01T05:25:33;4.30;;;3.50;;
64619;SDS011;51029;51.058;13.826;2022-08-01T05:27:59;4.67;;;3.30;;
64619;SDS011;51029;51.058;13.826;2022-08-01T05:30:25;4.77;;;3.40;;
64619;SDS011;51029;51.058;13.826;2022-08-01T05:32:51;4.40;;;3.23;;
64619;SDS011;51029;51.058;13.826;2022-08-01T05:35:17;7.70;;;3.90;;
64619;SDS011;51029;51.058;13.826;2022-08-01T05:37:43;4.40;;;3.60;;
64619;SDS011;51029;51.058;13.826;2022-08-01T05:40:09;4.37;;;3.57;;
64619;SDS011;51029;51.058;13.826;2022-08-01T05:42:35;4.67;;;3.40;;
64619;SDS011;51029;51.058;13.826;2022-08-01T05:45:01;3.67;;;3.37;;
64619;SDS011;51029;51.058;13.826;2022-08-01T05:47:27;3.50;;;3.20;;
64619;SDS011;51029;51.058;13.826;2022-08-01T05:49:53;3.37;;;3.00;;
64619;SDS011;51029;51.058;13.826;2022-08-01T05:52:19;4.47;;;3.17;;
64619;SDS011;51029;51.058;13.826;2022-08-01T05:54:45;6.47;;;3.20;;
64619;SDS011;51029;51.058;13.826;2022-08-01T05:57:11;3.27;;;2.97;;
64619;SDS011;51029;51.058;13.826;2022-08-01T05:59:37;5.30;;;2.90;;
64619;SDS011;51029;51.058;13.826;2022-08-01T06:02:03;5.33;;;2.90;;
64619;SDS011;51029;51.058;13.826;2022-08-01T06:04:28;3.83;;;3.10;;
64619;SDS011;51029;51.058;13.826;2022-08-01T06:06:54;3.63;;;2.60;;
64619;SDS011;51029;51.058;13.826;2022-08-01T06:09:20;4.00;;;2.90;;
64619;SDS011;51029;51.058;13.826;2022-08-01T06:11:46;4.63;;;2.93;;
64619;SDS011;51029;51.058;13.826;2022-08-01T06:14:12;6.10;;;3.27;;
64619;SDS011;51029;51.058;13.826;2022-08-01T06:16:38;4.20;;;3.00;;
64619;SDS011;51029;51.058;13.826;2022-08-01T06:19:04;3.63;;;3.20;;
64619;SDS011;51029;51.058;13.826;2022-08-01T06:21:30;5.07;;;3.33;;
64619;SDS011;51029;51.058;13.826;2022-08-01T06:23:56;5.07;;;2.97;;
64619;SDS011;51029;51.058;13.826;2022-08-01T06:26:22;3.30;;;2.90;;
64619;SDS011;51029;51.058;13.826;2022-08-01T06:28:48;3.37;;;3.00;;
64619;SDS011;51029;51.058;13.826;2022-08-01T06:31:14;4.70;;;2.90;;
64619;SDS011;51029;51.058;13.826;2022-08-01T06:33:40;3.37;;;3.00;;
64619;SDS011;51029;51.058;13.826;2022-08-01T06:36:06;2.80;;;2.60;;
64619;SDS011;51029;51.058;13.826;2022-08-01T06:38:32;3.53;;;2.57;;
64619;SDS011;51029;51.058;13.826;2022-08-01T06:40:58;3.27;;;2.63;;
64619;SDS011;51029;51.058;13.826;2022-08-01T06:43:24;3.63;;;2.90;;
64619;SDS011;51029;51.058;13.826;2022-08-01T06:45:50;3.10;;;2.77;;
64619;SDS011;51029;51.058;13.826;2022-08-01T06:48:16;4.60;;;3.10;;
64619;SDS011;51029;51.058;13.826;2022-08-01T06:50:42;3.77;;;3.13;;
64619;SDS011;51029;51.058;13.826;2022-08-01T06:53:08;4.17;;;2.90;;
64619;SDS011;51029;51.058;13.826;2022-08-01T06:55:34;3.57;;;2.63;;
64619;SDS011;51029;51.058;13.826;2022-08-01T06:58:00;3.13;;;2.87;;
64619;SDS011;51029;51.058;13.826;2022-08-01T07:00:26;3.10;;;2.40;;
64619;SDS011;51029;51.058;13.826;2022-08-01T07:02:53;2.80;;;2.20;;
64619;SDS011;51029;51.058;13.826;2022-08-01T07:05:20;2.70;;;2.27;;
64619;SDS011;51029;51.058;13.826;2022-08-01T07:07:46;2.90;;;2.60;;
64619;SDS011;51029;51.058;13.826;2022-08-01T07:10:11;3.23;;;2.93;;
64619;SDS011;51029;51.058;13.826;2022-08-01T07:12:37;3.17;;;2.87;;
64619;SDS011;51029;51.058;13.826;2022-08-01T07:15:05;3.30;;;3.00;;
64619;SDS011;51029;51.058;13.826;2022-08-01T07:17:31;3.53;;;3.30;;
64619;SDS011;51029;51.058;13.826;2022-08-01T07:19:57;4.33;;;3.50;;
64619;SDS011;51029;51.058;13.826;2022-08-01T07:22:23;4.20;;;3.90;;
64619;SDS011;51029;51.058;13.826;2022-08-01T07:24:49;4.63;;;4.03;;
64619;SDS011;51029;51.058;13.826;2022-08-01T07:27:15;5.10;;;4.60;;
64619;SDS011;51029;51.058;13.826;2022-08-01T07:29:41;6.57;;;4.90;;
64619;SDS011;51029;51.058;13.826;2022-08-01T07:32:07;4.70;;;4.30;;
64619;SDS011;51029;51.058;13.826;2022-08-01T07:34:33;4.70;;;4.30;;
64619;SDS011;51029;51.058;13.826;2022-08-01T07:36:59;5.20;;;4.80;;
64619;SDS011;51029;51.058;13.826;2022-08-01T07:39:25;5.10;;;4.70;;
64619;SDS011;51029;51.058;13.826;2022-08-01T07:41:51;5.20;;;4.80;;
64619;SDS011;51029;51.058;13.826;2022-08-01T07:44:17;5.87;;;5.27;;
64619;SDS011;51029;51.058;13.826;2022-08-01T07:46:43;4.97;;;4.57;;
64619;SDS011;51029;51.058;13.826;2022-08-01T07:49:09;5.20;;;4.73;;
64619;SDS011;51029;51.058;13.826;2022-08-01T07:51:35;5.23;;;4.73;;
64619;SDS011;51029;51.058;13.826;2022-08-01T07:54:01;8.93;;;5.30;;
64619;SDS011;51029;51.058;13.826;2022-08-01T07:56:26;5.37;;;4.67;;
64619;SDS011;51029;51.058;13.826;2022-08-01T07:58:52;5.60;;;5.10;;
64619;SDS011;51029;51.058;13.826;2022-08-01T08:01:18;5.63;;;5.20;;
64619;SDS011;51029;51.058;13.826;2022-08-01T08:03:44;5.37;;;4.90;;
64619;SDS011;51029;51.058;13.826;2022-08-01T08:06:10;5.20;;;4.80;;
64619;SDS011;51029;51.058;13.826;2022-08-01T08:08:36;6.00;;;5.33;;
64619;SDS011;51029;51.058;13.826;2022-08-01T08:11:02;5.73;;;4.50;;
64619;SDS011;51029;51.058;13.826;2022-08-01T08:13:28;6.13;;;4.80;;
64619;SDS011;51029;51.058;13.826;2022-08-01T08:15:54;5.00;;;4.60;;
64619;SDS011;51029;51.058;13.826;2022-08-01T08:18:20;5.23;;;4.53;;
64619;SDS011;51029;51.058;13.826;2022-08-01T08:20:46;5.07;;;4.60;;
64619;SDS011;51029;51.058;13.826;2022-08-01T08:23:12;6.73;;;5.00;;
64619;SDS011;51029;51.058;13.826;2022-08-01T08:25:57;4.30;;;3.90;;
64619;SDS011;51029;51.058;13.826;2022-08-01T08:28:23;4.90;;;3.57;;
64619;SDS011;51029;51.058;13.826;2022-08-01T08:30:49;4.70;;;3.60;;
64619;SDS011;51029;51.058;13.826;2022-08-01T08:33:15;3.00;;;2.80;;
64619;SDS011;51029;51.058;13.826;2022-08-01T08:35:40;3.33;;;3.03;;
64619;SDS011;51029;51.058;13.826;2022-08-01T08:38:07;3.83;;;3.07;;
64619;SDS011;51029;51.058;13.826;2022-08-01T08:40:34;3.47;;;3.17;;
64619;SDS011;51029;51.058;13.826;2022-08-01T08:43:00;2.80;;;2.60;;
64619;SDS011;51029;51.058;13.826;2022-08-01T08:45:27;3.90;;;2.80;;
64619;SDS011;51029;51.058;13.826;2022-08-01T08:47:54;5.07;;;2.90;;
64619;SDS011;51029;51.058;13.826;2022-08-01T08:50:20;3.13;;;2.50;;
64619;SDS011;51029;51.058;13.826;2022-08-01T08:52:46;3.10;;;2.80;;
64619;SDS011;51029;51.058;13.826;2022-08-01T08:55:13;2.93;;;2.73;;
64619;SDS011;51029;51.058;13.826;2022-08-01T08:57:41;3.10;;;2.50;;
64619;SDS011;51029;51.058;13.826;2022-08-01T09:00:09;2.97;;;2.70;;
64619;SDS011;51029;51.058;13.826;2022-08-01T09:02:38;3.53;;;2.80;;
64619;SDS011;51029;51.058;13.826;2022-08-01T09:05:05;2.90;;;2.67;;
64619;SDS011;51029;51.058;13.826;2022-08-01T09:07:31;3.50;;;2.30;;
64619;SDS011;51029;51.058;13.826;2022-08-01T09:09:57;2.67;;;2.47;;
64619;SDS011;51029;51.058;13.826;2022-08-01T09:12:23;4.97;;;2.57;;
64619;SDS011;51029;51.058;13.826;2022-08-01T09:14:49;2.80;;;1.80;;
64619;SDS011;51029;51.058;13.826;2022-08-01T09:17:18;3.17;;;1.90;;
64619;SDS011;51029;51.058;13.826;2022-08-01T09:19:45;2.57;;;1.90;;
64619;SDS011;51029;51.058;13.826;2022-08-01T09:22:13;2.17;;;1.90;;
64619;SDS011;51029;51.058;13.826;2022-08-01T09:24:42;2.67;;;1.80;;
64619;SDS011;51029;51.058;13.826;2022-08-01T09:27:22;2.27;;;1.80;;
64619;SDS011;51029;51.058;13.826;2022-08-01T09:29:50;2.40;;;2.00;;
64619;SDS011;51029;51.058;13.826;2022-08-01T09:32:16;2.93;;;1.77;;
64619;SDS011;51029;51.058;13.826;2022-08-01T09:34:42;2.63;;;1.80;;
64619;SDS011;51029;51.058;13.826;2022-08-01T09:37:08;3.00;;;1.80;;
64619;SDS011;51029;51.058;13.826;2022-08-01T09:39:37;2.33;;;1.90;;
64619;SDS011;51029;51.058;13.826;2022-08-01T09:42:23;4.17;;;1.90;;
64619;SDS011;51029;51.058;13.826;2022-08-01T09:44:49;2.70;;;1.70;;
64619;SDS011;51029;51.058;13.826;2022-08-01T09:47:16;4.87;;;2.10;;
64619;SDS011;51029;51.058;13.826;2022-08-01T09:49:42;1.90;;;1.80;;
64619;SDS011;51029;51.058;13.826;2022-08-01T09:52:13;2.40;;;2.20;;
64619;SDS011;51029;51.058;13.826;2022-08-01T09:54:40;2.10;;;2.00;;
64619;SDS011;51029;51.058;13.826;2022-08-01T09:57:16;2.13;;;1.87;;
64619;SDS011;51029;51.058;13.826;2022-08-01T09:59:44;2.23;;;2.03;;
64619;SDS011;51029;51.058;13.826;2022-08-01T10:02:14;2.30;;;2.10;;
64619;SDS011;51029;51.058;13.826;2022-08-01T10:04:47;2.40;;;2.20;;
64619;SDS011;51029;51.058;13.826;2022-08-01T10:07:14;4.17;;;2.20;;
64619;SDS011;51029;51.058;13.826;2022-08-01T10:09:43;2.50;;;1.80;;
64619;SDS011;51029;51.058;13.826;2022-08-01T10:12:09;3.00;;;2.00;;
64619;SDS011;51029;51.058;13.826;2022-08-01T10:14:36;1.73;;;1.63;;
64619;SDS011;51029;51.058;13.826;2022-08-01T10:17:02;1.40;;;1.30;;
64619;SDS011;51029;51.058;13.826;2022-08-01T10:19:29;1.67;;;1.40;;
64619;SDS011;51029;51.058;13.826;2022-08-01T10:21:57;1.73;;;1.47;;
64619;SDS011;51029;51.058;13.826;2022-08-01T10:24:24;1.53;;;1.43;;
64619;SDS011;51029;51.058;13.826;2022-08-01T10:26:51;3.70;;;1.60;;
64619;SDS011;51029;51.058;13.826;2022-08-01T10:29:19;1.53;;;1.20;;
64619;SDS011;51029;51.058;13.826;2022-08-01T10:31:46;1.67;;;1.17;;
64619;SDS011;51029;51.058;13.826;2022-08-01T10:34:15;1.33;;;1.20;;
64619;SDS011;51029;51.058;13.826;2022-08-01T10:36:44;1.70;;;1.07;;
64619;SDS011;51029;51.058;13.826;2022-08-01T10:39:10;1.47;;;1.07;;
64619;SDS011;51029;51.058;13.826;2022-08-01T10:41:37;2.60;;;0.97;;
64619;SDS011;51029;51.058;13.826;2022-08-01T10:44:03;2.03;;;1.13;;
64619;SDS011;51029;51.058;13.826;2022-08-01T10:46:31;1.33;;;1.00;;
64619;SDS011;51029;51.058;13.826;2022-08-01T10:48:58;0.77;;;0.75;;
64619;SDS011;51029;51.058;13.826;2022-08-01T10:51:26;3.72;;;1.10;;
64619;SDS011;51029;51.058;13.826;2022-08-01T10:53:53;1.10;;;1.00;;
64619;SDS011;51029;51.058;13.826;2022-08-01T10:56:20;0.80;;;0.80;;
64619;SDS011;51029;51.058;13.826;2022-08-01T10:58:47;0.70;;;0.70;;
64619;SDS011;51029;51.058;13.826;2022-08-01T11:01:23;4.22;;;0.90;;
64619;SDS011;51029;51.058;13.826;2022-08-01T11:03:57;2.85;;;0.73;;
64619;SDS011;51029;51.058;13.826;2022-08-01T11:06:24;0.68;;;0.65;;
64619;SDS011;51029;51.058;13.826;2022-08-01T11:08:52;2.23;;;0.60;;
64619;SDS011;51029;51.058;13.826;2022-08-01T11:11:19;1.63;;;0.70;;
64619;SDS011;51029;51.058;13.826;2022-08-01T11:16:26;1.10;;;0.57;;
64619;SDS011;51029;51.058;13.826;2022-08-01T11:18:52;1.30;;;0.60;;
64619;SDS011;51029;51.058;13.826;2022-08-01T11:21:18;2.10;;;0.80;;
64619;SDS011;51029;51.058;13.826;2022-08-01T11:23:49;1.95;;;0.50;;
64619;SDS011;51029;51.058;13.826;2022-08-01T11:26:16;0.82;;;0.63;;
64619;SDS011;51029;51.058;13.826;2022-08-01T11:28:43;0.70;;;0.50;;
64619;SDS011;51029;51.058;13.826;2022-08-01T11:38:48;0.60;;;0.40;;
64619;SDS011;51029;51.058;13.826;2022-08-01T11:49:22;1.70;;;0.70;;
64619;SDS011;51029;51.058;13.826;2022-08-01T11:51:48;1.13;;;0.40;;
64619;SDS011;51029;51.058;13.826;2022-08-01T11:54:14;0.75;;;0.52;;
64619;SDS011;51029;51.058;13.826;2022-08-01T11:56:41;3.50;;;0.80;;
64619;SDS011;51029;51.058;13.826;2022-08-01T11:59:07;0.88;;;0.70;;
64619;SDS011;51029;51.058;13.826;2022-08-01T12:01:33;3.80;;;0.80;;
64619;SDS011;51029;51.058;13.826;2022-08-01T12:03:59;1.05;;;0.70;;
64619;SDS011;51029;51.058;13.826;2022-08-01T12:06:28;3.08;;;1.00;;
64619;SDS011;51029;51.058;13.826;2022-08-01T12:08:55;2.03;;;0.83;;
64619;SDS011;51029;51.058;13.826;2022-08-01T12:11:39;2.40;;;0.80;;
64619;SDS011;51029;51.058;13.826;2022-08-01T12:14:05;2.07;;;0.90;;
64619;SDS011;51029;51.058;13.826;2022-08-01T12:16:32;1.83;;;0.90;;
64619;SDS011;51029;51.058;13.826;2022-08-01T12:18:58;3.37;;;1.10;;
64619;SDS011;51029;51.058;13.826;2022-08-01T12:21:25;3.90;;;0.90;;
64619;SDS011;51029;51.058;13.826;2022-08-01T12:24:01;1.30;;;0.90;;
64619;SDS011;51029;51.058;13.826;2022-08-01T12:26:40;1.00;;;0.90;;
64619;SDS011;51029;51.058;13.826;2022-08-01T12:29:06;2.05;;;0.88;;
64619;SDS011;51029;51.058;13.826;2022-08-01T12:31:33;0.90;;;0.60;;
64619;SDS011;51029;51.058;13.826;2022-08-01T12:34:24;3.58;;;0.85;;
64619;SDS011;51029;51.058;13.826;2022-08-01T12:36:45;2.25;;;0.90;;
64619;SDS011;51029;51.058;13.826;2022-08-01T12:39:11;0.65;;;0.65;;
64619;SDS011;51029;51.058;13.826;2022-08-01T12:41:37;2.38;;;0.80;;
64619;SDS011;51029;51.058;13.826;2022-08-01T12:44:11;1.20;;;0.70;;
64619;SDS011;51029;51.058;13.826;2022-08-01T12:46:38;0.65;;;0.60;;
64619;SDS011;51029;51.058;13.826;2022-08-01T12:49:04;1.17;;;0.70;;
64619;SDS011;51029;51.058;13.826;2022-08-01T12:51:30;3.15;;;0.50;;
64619;SDS011;51029;51.058;13.826;2022-08-01T12:53:59;3.08;;;0.55;;
64619;SDS011;51029;51.058;13.826;2022-08-01T12:56:33;1.17;;;0.75;;
64619;SDS011;51029;51.058;13.826;2022-08-01T12:58:59;3.75;;;0.55;;
64619;SDS011;51029;51.058;13.826;2022-08-01T13:01:26;0.57;;;0.45;;
64619;SDS011;51029;51.058;13.826;2022-08-01T13:04:02;0.70;;;0.60;;
64619;SDS011;51029;51.058;13.826;2022-08-01T13:06:31;2.80;;;0.80;;
64619;SDS011;51029;51.058;13.826;2022-08-01T13:09:07;0.98;;;0.70;;
64619;SDS011;51029;51.058;13.826;2022-08-01T13:11:34;0.60;;;0.60;;
64619;SDS011;51029;51.058;13.826;2022-08-01T13:14:00;3.00;;;1.15;;
64619;SDS011;51029;51.058;13.826;2022-08-01T13:16:26;0.95;;;0.57;;
64619;SDS011;51029;51.058;13.826;2022-08-01T13:18:52;1.38;;;0.47;;
64619;SDS011;51029;51.058;13.826;2022-08-01T13:21:19;1.15;;;0.50;;
64619;SDS011;51029;51.058;13.826;2022-08-01T13:24:03;0.38;;;0.38;;
64619;SDS011;51029;51.058;13.826;2022-08-01T13:26:49;1.77;;;0.70;;
64619;SDS011;51029;51.058;13.826;2022-08-01T13:29:16;1.45;;;0.57;;
64619;SDS011;51029;51.058;13.826;2022-08-01T13:31:43;1.52;;;0.55;;
64619;SDS011;51029;51.058;13.826;2022-08-01T13:34:09;1.25;;;0.50;;
64619;SDS011;51029;51.058;13.826;2022-08-01T13:36:35;1.00;;;0.60;;
64619;SDS011;51029;51.058;13.826;2022-08-01T13:39:02;1.10;;;0.40;;
64619;SDS011;51029;51.058;13.826;2022-08-01T13:41:47;1.63;;;0.68;;
64619;SDS011;51029;51.058;13.826;2022-08-01T13:44:13;1.67;;;0.50;;
64619;SDS011;51029;51.058;13.826;2022-08-01T13:46:40;2.08;;;0.40;;
64619;SDS011;51029;51.058;13.826;2022-08-01T13:49:06;0.68;;;0.60;;
64619;SDS011;51029;51.058;13.826;2022-08-01T13:51:33;2.55;;;0.50;;
64619;SDS011;51029;51.058;13.826;2022-08-01T13:53:59;6.85;;;0.77;;
64619;SDS011;51029;51.058;13.826;2022-08-01T13:56:25;1.63;;;0.50;;
64619;SDS011;51029;51.058;13.826;2022-08-01T13:58:55;2.63;;;0.60;;
64619;SDS011;51029;51.058;13.826;2022-08-01T14:01:21;1.38;;;0.50;;
64619;SDS011;51029;51.058;13.826;2022-08-01T14:03:47;1.30;;;0.60;;
64619;SDS011;51029;51.058;13.826;2022-08-01T14:06:13;3.00;;;0.68;;
64619;SDS011;51029;51.058;13.826;2022-08-01T14:08:41;1.42;;;0.70;;
64619;SDS011;51029;51.058;13.826;2022-08-01T14:11:07;2.70;;;0.77;;
64619;SDS011;51029;51.058;13.826;2022-08-01T14:13:33;0.95;;;0.50;;
64619;SDS011;51029;51.058;13.826;2022-08-01T14:15:59;1.35;;;0.60;;
64619;SDS011;51029;51.058;13.826;2022-08-01T14:18:25;0.52;;;0.50;;
64619;SDS011;51029;51.058;13.826;2022-08-01T14:20:51;1.83;;;0.85;;
64619;SDS011;51029;51.058;13.826;2022-08-01T14:23:17;1.65;;;0.60;;
64619;SDS011;51029;51.058;13.826;2022-08-01T14:25:43;0.73;;;0.57;;
64619;SDS011;51029;51.058;13.826;2022-08-01T14:28:09;1.08;;;0.50;;
64619;SDS011;51029;51.058;13.826;2022-08-01T14:30:35;2.38;;;0.60;;
64619;SDS011;51029;51.058;13.826;2022-08-01T14:33:01;1.67;;;0.70;;
64619;SDS011;51029;51.058;13.826;2022-08-01T14:35:27;1.02;;;0.60;;
64619;SDS011;51029;51.058;13.826;2022-08-01T14:37:53;0.57;;;0.50;;
64619;SDS011;51029;51.058;13.826;2022-08-01T14:40:20;1.70;;;0.60;;
64619;SDS011;51029;51.058;13.826;2022-08-01T14:42:45;1.85;;;0.60;;
64619;SDS011;51029;51.058;13.826;2022-08-01T14:45:12;1.27;;;0.65;;
64619;SDS011;51029;51.058;13.826;2022-08-01T14:47:39;1.17;;;0.80;;
64619;SDS011;51029;51.058;13.826;2022-08-01T14:50:06;1.88;;;0.80;;
64619;SDS011;51029;51.058;13.826;2022-08-01T14:52:32;0.75;;;0.60;;
64619;SDS011;51029;51.058;13.826;2022-08-01T14:54:58;1.73;;;0.90;;
64619;SDS011;51029;51.058;13.826;2022-08-01T14:57:25;2.35;;;0.70;;
64619;SDS011;51029;51.058;13.826;2022-08-01T14:59:51;1.55;;;0.68;;
64619;SDS011;51029;51.058;13.826;2022-08-01T15:02:17;0.85;;;0.50;;